createdAt,value
2023-05-16T00:00:46.251Z,13.57
2023-05-16T00:03:12.752Z,13.50
2023-05-16T00:05:39.283Z,13.59
2023-05-16T00:08:06.153Z,13.69
2023-05-16T00:10:32.531Z,13.75
2023-05-16T00:13:01.803Z,13.58
2023-05-16T00:15:29.672Z,13.61
2023-05-16T00:18:00.184Z,13.54
2023-05-16T00:20:28.630Z,13.60
2023-05-16T00:22:55.394Z,13.61
2023-05-16T00:25:21.836Z,13.83
2023-05-16T00:27:48.214Z,13.52
2023-05-16T00:30:14.627Z,13.57
2023-05-16T00:32:41.054Z,13.55
2023-05-16T00:35:10.422Z,13.50
2023-05-16T00:37:37.542Z,13.41
2023-05-16T00:40:05.038Z,13.19
2023-05-16T00:42:31.580Z,13.28
2023-05-16T00:44:57.957Z,13.42
2023-05-16T00:47:24.362Z,13.33
2023-05-16T00:49:50.822Z,13.10
2023-05-16T00:52:17.212Z,13.21
2023-05-16T00:54:43.989Z,13.07
2023-05-16T00:57:10.535Z,13.15
2023-05-16T00:59:37.028Z,13.11
2023-05-16T01:02:03.471Z,12.99
2023-05-16T01:04:31.089Z,12.91
2023-05-16T01:06:57.951Z,12.79
2023-05-16T01:09:24.451Z,13.04
2023-05-16T01:11:57.461Z,12.87
2023-05-16T01:14:42.553Z,12.65
2023-05-16T01:17:20.438Z,12.84
2023-05-16T01:20:00.493Z,12.66
2023-05-16T01:22:38.588Z,12.56
2023-05-16T01:25:45.816Z,12.43
2023-05-16T01:28:14.845Z,12.37
2023-05-16T01:30:41.615Z,12.23
2023-05-16T01:33:08.841Z,12.27
2023-05-16T01:36:04.216Z,12.12
2023-05-16T01:38:39.257Z,12.19
2023-05-16T01:41:25.384Z,11.96
2023-05-16T01:43:57.409Z,12.03
2023-05-16T01:46:26.740Z,11.95
2023-05-16T01:49:01.469Z,11.84
2023-05-16T01:51:33.266Z,11.84
2023-05-16T01:54:05.482Z,11.74
2023-05-16T01:56:32.918Z,11.75
2023-05-16T01:59:00.669Z,11.73
2023-05-16T02:01:27.147Z,11.66
2023-05-16T02:03:53.596Z,11.81
2023-05-16T02:06:20.258Z,11.67
2023-05-16T02:08:46.636Z,11.48
2023-05-16T02:11:13.033Z,11.36
2023-05-16T02:13:39.399Z,11.59
2023-05-16T02:16:05.850Z,11.26
2023-05-16T02:18:32.717Z,11.58
2023-05-16T02:20:59.363Z,11.36
2023-05-16T02:23:25.813Z,11.01
2023-05-16T02:25:52.218Z,11.08
2023-05-16T02:28:18.630Z,11.49
2023-05-16T02:30:45.026Z,11.15
2023-05-16T02:33:11.633Z,11.28
2023-05-16T02:35:38.095Z,11.06
2023-05-16T02:38:04.473Z,11.19
2023-05-16T02:40:31.034Z,11.27
2023-05-16T02:42:57.414Z,11.60
2023-05-16T02:45:23.799Z,11.20
2023-05-16T02:47:50.263Z,11.09
2023-05-16T02:50:16.671Z,11.11
2023-05-16T02:52:43.048Z,11.40
2023-05-16T02:55:35.778Z,11.22
2023-05-16T02:57:55.899Z,11.27
2023-05-16T03:00:22.501Z,11.05
2023-05-16T03:02:49.023Z,11.18
2023-05-16T03:05:15.457Z,11.08
2023-05-16T03:07:41.822Z,11.32
2023-05-16T03:10:08.687Z,11.41
2023-05-16T03:12:35.069Z,11.06
2023-05-16T03:15:01.801Z,11.03
2023-05-16T03:17:28.697Z,11.35
2023-05-16T03:19:55.160Z,11.17
2023-05-16T03:22:21.551Z,11.30
2023-05-16T03:24:47.987Z,11.30
2023-05-16T03:27:14.384Z,11.28
2023-05-16T03:29:40.988Z,11.15
2023-05-16T03:32:07.532Z,11.06
2023-05-16T03:34:34.077Z,11.03
2023-05-16T03:37:00.464Z,11.06
2023-05-16T03:39:26.837Z,11.07
2023-05-16T03:41:56.095Z,10.95
2023-05-16T03:44:22.532Z,10.88
2023-05-16T03:46:51.475Z,10.86
2023-05-16T03:49:17.920Z,11.05
2023-05-16T03:51:44.289Z,11.07
2023-05-16T03:54:10.799Z,11.03
2023-05-16T03:56:37.168Z,10.88
2023-05-16T03:59:03.695Z,11.17
2023-05-16T04:01:30.223Z,11.04
2023-05-16T04:03:56.629Z,10.76
2023-05-16T04:06:23.103Z,11.10
2023-05-16T04:08:49.590Z,11.36
2023-05-16T04:11:15.965Z,10.88
2023-05-16T04:13:42.348Z,10.95
2023-05-16T04:16:08.768Z,11.11
2023-05-16T04:18:35.237Z,11.14
2023-05-16T04:21:01.721Z,10.88
2023-05-16T04:23:28.254Z,10.80
2023-05-16T04:25:56.413Z,10.54
2023-05-16T04:28:23.123Z,10.67
2023-05-16T04:30:50.358Z,10.64
2023-05-16T04:33:16.938Z,10.71
2023-05-16T04:35:43.372Z,10.40
2023-05-16T04:38:09.732Z,10.77
2023-05-16T04:40:36.086Z,10.25
2023-05-16T04:43:02.453Z,10.51
2023-05-16T04:45:29.108Z,10.61
2023-05-16T04:47:55.772Z,10.55
2023-05-16T04:50:22.196Z,10.38
2023-05-16T04:52:48.583Z,10.69
2023-05-16T04:55:15.012Z,10.63
2023-05-16T04:57:41.428Z,10.71
2023-05-16T05:00:10.170Z,10.15
2023-05-16T05:02:36.676Z,10.14
2023-05-16T05:05:03.429Z,10.29
2023-05-16T05:07:29.993Z,10.36
2023-05-16T05:09:56.445Z,10.47
2023-05-16T05:12:23.049Z,10.52
2023-05-16T05:14:49.631Z,10.60
2023-05-16T05:17:16.794Z,10.65
2023-05-16T05:19:43.359Z,10.51
2023-05-16T05:22:09.751Z,10.74
2023-05-16T05:24:36.331Z,10.54
2023-05-16T05:27:02.826Z,10.80
2023-05-16T05:29:29.195Z,10.36
2023-05-16T05:31:55.690Z,10.95
2023-05-16T05:34:22.180Z,10.50
2023-05-16T05:36:48.552Z,10.42
2023-05-16T05:39:14.928Z,10.72
2023-05-16T05:41:41.298Z,10.45
2023-05-16T05:44:07.662Z,10.43
2023-05-16T05:46:34.318Z,10.63
2023-05-16T05:49:01.307Z,10.91
2023-05-16T05:51:27.988Z,10.60
2023-05-16T05:53:54.524Z,10.75
2023-05-16T05:56:21.410Z,10.91
2023-05-16T05:58:47.956Z,10.65
2023-05-16T06:01:14.519Z,11.11
2023-05-16T06:03:40.943Z,10.91
2023-05-16T06:06:07.951Z,10.44
2023-05-16T06:08:34.467Z,10.84
2023-05-16T06:11:01.541Z,11.01
2023-05-16T06:13:27.925Z,11.38
2023-05-16T06:15:54.551Z,10.93
2023-05-16T06:18:21.280Z,11.38
2023-05-16T06:20:47.654Z,10.92
2023-05-16T06:23:14.046Z,11.03
2023-05-16T06:25:40.417Z,11.08
2023-05-16T06:28:06.783Z,11.29
2023-05-16T06:30:33.154Z,10.94
2023-05-16T06:32:59.696Z,11.08
2023-05-16T06:35:26.398Z,11.09
2023-05-16T06:37:52.907Z,10.84
2023-05-16T06:40:19.286Z,10.91
2023-05-16T06:42:45.732Z,10.95
2023-05-16T06:45:12.270Z,11.03
2023-05-16T06:47:38.787Z,11.12
2023-05-16T06:50:06.069Z,10.89
2023-05-16T06:52:32.469Z,10.82
2023-05-16T06:54:58.874Z,11.01
2023-05-16T06:57:25.329Z,11.01
2023-05-16T06:59:51.746Z,11.11
2023-05-16T07:02:18.211Z,11.23
2023-05-16T07:04:44.669Z,11.36
2023-05-16T07:07:11.100Z,11.20
2023-05-16T07:09:37.549Z,11.25
2023-05-16T07:12:04.351Z,11.41
2023-05-16T07:14:30.766Z,11.45
2023-05-16T07:16:57.199Z,11.60
2023-05-16T07:19:23.835Z,11.57
2023-05-16T07:21:50.374Z,11.23
2023-05-16T07:24:16.794Z,12.07
2023-05-16T07:26:43.431Z,11.59
2023-05-16T07:29:09.874Z,12.18
2023-05-16T07:31:36.373Z,11.98
2023-05-16T07:34:02.847Z,11.55
2023-05-16T07:36:29.319Z,11.85
2023-05-16T07:38:55.736Z,12.15
2023-05-16T07:41:22.210Z,11.72
2023-05-16T07:43:48.727Z,12.21
2023-05-16T07:46:15.455Z,11.72
2023-05-16T07:48:42.000Z,11.69
2023-05-16T07:51:08.499Z,12.05
2023-05-16T07:53:34.950Z,11.52
2023-05-16T07:56:01.440Z,11.69
2023-05-16T07:58:27.883Z,11.59
2023-05-16T08:00:54.597Z,11.56
2023-05-16T08:03:21.286Z,11.90
2023-05-16T08:05:49.080Z,11.74
2023-05-16T08:08:15.653Z,11.68
2023-05-16T08:10:42.086Z,11.48
2023-05-16T08:13:08.571Z,11.23
2023-05-16T08:15:35.836Z,11.11
2023-05-16T08:18:02.354Z,11.32
2023-05-16T08:20:28.845Z,11.56
2023-05-16T08:22:55.335Z,11.62
2023-05-16T08:25:21.754Z,11.91
2023-05-16T08:27:49.865Z,11.54
2023-05-16T08:30:16.373Z,11.79
2023-05-16T08:32:42.934Z,11.50
2023-05-16T08:35:11.026Z,11.72
2023-05-16T08:37:37.559Z,11.64
2023-05-16T08:40:05.794Z,11.85
2023-05-16T08:42:33.768Z,11.35
2023-05-16T08:45:00.287Z,11.64
2023-05-16T08:47:30.021Z,12.29
2023-05-16T08:49:58.400Z,11.94
2023-05-16T08:52:30.587Z,12.12
2023-05-16T08:55:10.073Z,11.97
2023-05-16T08:57:38.871Z,12.24
2023-05-16T09:00:11.889Z,12.54
2023-05-16T09:02:43.216Z,12.21
2023-05-16T09:05:12.608Z,12.73
2023-05-16T09:07:39.260Z,12.81
2023-05-16T09:10:07.026Z,12.68
2023-05-16T09:12:34.022Z,12.74
2023-05-16T09:15:03.114Z,12.33
2023-05-16T09:17:44.231Z,13.22
2023-05-16T09:20:16.539Z,12.87
2023-05-16T09:22:56.858Z,12.71
2023-05-16T09:25:31.486Z,12.44
2023-05-16T09:28:01.448Z,12.79
2023-05-16T09:30:33.714Z,12.69
2023-05-16T09:33:00.465Z,12.70
2023-05-16T09:37:56.782Z,12.29
2023-05-16T09:40:24.060Z,12.08
2023-05-16T09:43:07.173Z,12.29
2023-05-16T09:45:35.299Z,11.99
2023-05-16T09:48:08.396Z,12.20
2023-05-16T09:50:37.196Z,12.09
2023-05-16T09:53:04.106Z,12.37
2023-05-16T09:55:31.521Z,11.88
2023-05-16T09:57:58.226Z,12.28
2023-05-16T10:00:33.549Z,12.17
2023-05-16T10:03:04.769Z,12.04
2023-05-16T10:05:32.838Z,12.03
2023-05-16T10:07:59.850Z,12.07
2023-05-16T10:10:27.207Z,12.09
2023-05-16T10:12:58.619Z,12.55
2023-05-16T10:15:26.046Z,12.38
2023-05-16T10:17:56.500Z,12.53
2023-05-16T10:20:24.226Z,12.36
2023-05-16T10:22:55.175Z,12.58
2023-05-16T10:25:38.893Z,13.75
2023-05-16T10:28:07.094Z,12.95
2023-05-16T10:30:34.901Z,12.77
2023-05-16T10:33:04.245Z,12.58
2023-05-16T10:35:35.063Z,12.43
2023-05-16T10:38:02.581Z,12.42
2023-05-16T10:40:30.475Z,11.78
2023-05-16T10:43:02.070Z,11.91
2023-05-16T10:45:29.044Z,11.97
2023-05-16T10:47:58.890Z,11.81
2023-05-16T10:50:45.398Z,11.59
2023-05-16T10:53:31.577Z,11.78
2023-05-16T10:56:01.209Z,11.81
2023-05-16T10:58:35.084Z,12.59
2023-05-16T11:01:20.668Z,12.75
2023-05-16T11:04:02.543Z,12.99
2023-05-16T11:06:33.089Z,13.82
2023-05-16T11:09:10.164Z,13.77
2023-05-16T11:11:49.417Z,13.94
2023-05-16T11:14:25.826Z,13.37
2023-05-16T11:17:03.407Z,13.41
2023-05-16T11:19:34.185Z,13.08
2023-05-16T11:22:11.718Z,12.45
2023-05-16T11:24:39.716Z,13.13
2023-05-16T11:27:06.831Z,12.95
2023-05-16T11:29:35.071Z,13.52
2023-05-16T11:32:03.737Z,13.52
2023-05-16T11:34:31.605Z,13.01
2023-05-16T11:37:00.123Z,13.62
2023-05-16T11:39:26.640Z,14.35
2023-05-16T11:41:56.076Z,15.09
2023-05-16T11:44:22.490Z,14.61
2023-05-16T11:46:48.926Z,13.59
2023-05-16T11:49:15.546Z,14.10
2023-05-16T11:51:43.339Z,14.02
2023-05-16T11:54:10.507Z,14.18
2023-05-16T11:56:37.415Z,14.09
2023-05-16T11:59:04.490Z,14.08
2023-05-16T12:01:39.041Z,14.27
2023-05-16T12:04:13.698Z,14.85
2023-05-16T12:06:41.011Z,14.20
2023-05-16T12:09:11.580Z,13.95
2023-05-16T12:11:38.511Z,14.59
2023-05-16T12:14:10.362Z,14.00
2023-05-16T12:16:38.907Z,14.44
2023-05-16T12:19:07.079Z,14.53
2023-05-16T12:21:34.056Z,14.88
2023-05-16T12:24:00.799Z,15.17
2023-05-16T12:26:30.766Z,14.48
2023-05-16T12:29:00.734Z,15.22
2023-05-16T12:31:32.347Z,15.41
2023-05-16T12:33:59.379Z,15.41
2023-05-16T12:36:26.465Z,16.03
2023-05-16T12:38:53.691Z,15.51
2023-05-16T12:41:21.699Z,15.04
2023-05-16T12:43:49.040Z,15.38
2023-05-16T12:46:16.348Z,15.59
2023-05-16T12:48:44.132Z,15.15
2023-05-16T12:51:18.203Z,15.70
2023-05-16T12:53:57.720Z,15.12
2023-05-16T12:56:32.397Z,14.77
2023-05-16T12:58:58.820Z,15.32
2023-05-16T13:01:25.349Z,15.24
2023-05-16T13:03:51.939Z,15.41
2023-05-16T13:06:18.558Z,15.41
2023-05-16T13:08:44.969Z,14.68
2023-05-16T13:11:11.390Z,16.55
2023-05-16T13:13:37.800Z,17.20
2023-05-16T13:16:04.450Z,17.26
2023-05-16T13:18:31.573Z,16.70
2023-05-16T13:20:58.301Z,18.80
2023-05-16T13:23:24.750Z,17.89
2023-05-16T13:25:53.009Z,17.57
2023-05-16T13:28:19.438Z,17.04
2023-05-16T13:30:45.946Z,16.78
2023-05-16T13:33:12.596Z,16.60
2023-05-16T13:35:39.155Z,16.91
2023-05-16T13:38:05.555Z,19.17
2023-05-16T13:40:32.795Z,19.78
2023-05-16T13:43:00.948Z,17.68
2023-05-16T13:45:27.813Z,16.53
2023-05-16T13:47:54.632Z,16.74
2023-05-16T13:50:21.478Z,17.28
2023-05-16T13:52:48.752Z,21.61
2023-05-16T13:55:15.227Z,22.57
2023-05-16T13:57:41.784Z,24.75
2023-05-16T14:00:35.124Z,22.82
2023-05-16T14:02:58.891Z,19.63
2023-05-16T14:05:26.216Z,18.11
2023-05-16T14:07:52.653Z,17.86
2023-05-16T14:10:19.125Z,18.08
2023-05-16T14:12:45.534Z,17.66
2023-05-16T14:15:12.233Z,22.23
2023-05-16T14:17:38.838Z,22.39
2023-05-16T14:20:11.467Z,17.87
2023-05-16T14:22:38.491Z,17.38
2023-05-16T14:25:06.183Z,18.45
2023-05-16T14:27:32.618Z,22.28
2023-05-16T14:29:59.650Z,23.18
2023-05-16T14:32:26.196Z,19.31
2023-05-16T14:34:52.797Z,17.93
2023-05-16T14:37:20.238Z,17.37
2023-05-16T14:39:47.295Z,18.39
2023-05-16T14:42:13.733Z,18.65
2023-05-16T14:44:40.152Z,17.66
2023-05-16T14:47:06.749Z,17.42
2023-05-16T14:49:33.224Z,17.10
2023-05-16T14:51:59.684Z,17.21
2023-05-16T14:54:26.118Z,16.88
2023-05-16T14:56:52.542Z,17.64
2023-05-16T14:59:19.043Z,19.76
2023-05-16T15:01:45.566Z,22.38
2023-05-16T15:04:12.006Z,26.69
2023-05-16T15:06:38.401Z,19.82
2023-05-16T15:09:05.788Z,18.34
2023-05-16T15:11:32.247Z,25.60
2023-05-16T15:13:58.833Z,27.86
2023-05-16T15:16:25.385Z,28.87
2023-05-16T15:18:51.860Z,28.27
2023-05-16T15:21:18.315Z,25.99
2023-05-16T15:23:45.382Z,24.71
2023-05-16T15:26:11.797Z,25.15
2023-05-16T15:28:38.538Z,22.10
2023-05-16T15:31:05.850Z,24.94
2023-05-16T15:33:32.301Z,20.92
2023-05-16T15:35:58.701Z,24.12
2023-05-16T15:38:25.151Z,24.27
2023-05-16T15:41:05.079Z,26.35
2023-05-16T15:43:38.649Z,25.65
2023-05-16T15:46:06.719Z,20.51
2023-05-16T15:48:33.187Z,19.45
2023-05-16T15:50:59.641Z,21.15
2023-05-16T15:53:26.356Z,22.54
2023-05-16T15:55:52.758Z,20.70
2023-05-16T15:58:22.548Z,19.79
2023-05-16T16:00:49.224Z,20.52
2023-05-16T16:03:15.701Z,23.79
2023-05-16T16:05:42.206Z,23.55
2023-05-16T16:08:08.631Z,20.96
2023-05-16T16:10:35.288Z,20.62
2023-05-16T16:13:02.899Z,19.05
2023-05-16T16:15:33.186Z,21.96
2023-05-16T16:18:00.571Z,21.55
2023-05-16T16:20:27.199Z,20.71
2023-05-16T16:22:53.689Z,18.56
2023-05-16T16:25:20.171Z,17.89
2023-05-16T16:27:46.572Z,20.07
2023-05-16T16:30:13.110Z,20.93
2023-05-16T16:32:39.611Z,19.00
2023-05-16T16:35:06.249Z,21.23
2023-05-16T16:37:32.917Z,22.21
2023-05-16T16:39:59.461Z,22.78
2023-05-16T16:42:26.822Z,22.24
2023-05-16T16:44:53.655Z,21.87
2023-05-16T16:47:21.266Z,22.55
2023-05-16T16:49:47.674Z,20.31
2023-05-16T16:52:14.106Z,21.03
2023-05-16T16:54:40.686Z,22.56
2023-05-16T16:57:07.200Z,22.33
2023-05-16T16:59:33.620Z,21.73
2023-05-16T17:02:00.196Z,22.57
2023-05-16T17:04:26.610Z,20.76
2023-05-16T17:06:53.055Z,18.73
2023-05-16T17:09:19.782Z,21.65
2023-05-16T17:11:46.783Z,18.57
2023-05-16T17:14:14.372Z,18.41
2023-05-16T17:16:41.154Z,17.13
2023-05-16T17:19:08.884Z,18.51
2023-05-16T17:21:36.843Z,18.75
2023-05-16T17:24:03.770Z,18.81
2023-05-16T17:26:31.610Z,17.20
2023-05-16T17:29:00.158Z,19.54
2023-05-16T17:31:27.175Z,18.28
2023-05-16T17:33:53.943Z,19.42
2023-05-16T17:36:20.729Z,18.15
2023-05-16T17:38:47.676Z,17.31
2023-05-16T17:41:14.501Z,17.88
2023-05-16T17:43:41.259Z,19.06
2023-05-16T17:46:08.281Z,19.71
2023-05-16T17:48:34.754Z,17.95
2023-05-16T17:51:01.808Z,17.74
2023-05-16T17:53:29.531Z,16.98
2023-05-16T17:55:56.682Z,17.08
2023-05-16T17:58:23.457Z,16.49
2023-05-16T18:00:49.920Z,16.60
2023-05-16T18:03:16.985Z,16.68
2023-05-16T18:05:43.582Z,15.43
2023-05-16T18:08:10.057Z,15.36
2023-05-16T18:10:50.269Z,15.07
2023-05-16T18:13:17.945Z,14.98
2023-05-16T18:15:44.383Z,15.05
2023-05-16T18:18:11.058Z,14.75
2023-05-16T18:20:37.715Z,14.87
2023-05-16T18:23:04.251Z,14.58
2023-05-16T18:25:31.677Z,14.44
2023-05-16T18:27:58.089Z,14.36
2023-05-16T18:30:24.562Z,14.04
2023-05-16T18:32:51.148Z,13.96
2023-05-16T18:35:17.668Z,13.84
2023-05-16T18:37:44.548Z,13.67
2023-05-16T18:40:11.494Z,13.69
2023-05-16T18:42:37.913Z,13.57
2023-05-16T18:45:04.654Z,13.48
2023-05-16T18:47:31.435Z,13.56
2023-05-16T18:49:57.959Z,13.41
2023-05-16T18:52:24.392Z,13.43
2023-05-16T18:54:50.824Z,13.56
2023-05-16T18:57:17.667Z,13.17
2023-05-16T18:59:44.124Z,13.07
2023-05-16T19:02:10.571Z,13.08
2023-05-16T19:04:39.904Z,13.08
2023-05-16T19:07:07.934Z,13.02
2023-05-16T19:09:35.851Z,13.04
2023-05-16T19:12:03.393Z,12.80
2023-05-16T19:14:29.821Z,12.76
2023-05-16T19:16:56.266Z,12.77
2023-05-16T19:19:22.866Z,12.84
2023-05-16T19:21:49.722Z,12.52
2023-05-16T19:24:16.363Z,12.48
2023-05-16T19:26:42.785Z,12.51
2023-05-16T19:29:10.658Z,12.51
2023-05-16T19:31:37.189Z,12.48
2023-05-16T19:34:03.655Z,12.29
2023-05-16T19:36:30.206Z,12.30
2023-05-16T19:38:56.634Z,12.27
2023-05-16T19:41:24.593Z,12.02
2023-05-16T19:43:51.511Z,12.13
2023-05-16T19:46:17.931Z,11.91
2023-05-16T19:48:44.471Z,11.98
2023-05-16T19:51:10.921Z,11.93
2023-05-16T19:53:37.421Z,11.94
2023-05-16T19:56:04.695Z,11.82
2023-05-16T19:58:31.164Z,11.79
2023-05-16T20:00:58.552Z,12.12
2023-05-16T20:03:25.273Z,12.12
2023-05-16T20:05:51.814Z,11.91
2023-05-16T20:08:18.239Z,11.78
2023-05-16T20:10:44.989Z,11.61
2023-05-16T20:13:11.387Z,11.58
2023-05-16T20:15:37.811Z,11.37
2023-05-16T20:18:04.373Z,11.50
2023-05-16T20:20:30.884Z,11.28
2023-05-16T20:22:57.315Z,11.15
2023-05-16T20:25:23.719Z,11.18
2023-05-16T20:27:50.171Z,11.15
2023-05-16T20:30:16.671Z,11.18
2023-05-16T20:32:43.102Z,11.14
2023-05-16T20:35:11.187Z,10.81
2023-05-16T20:37:37.681Z,10.91
2023-05-16T20:40:05.999Z,10.82
2023-05-16T20:42:32.420Z,10.94
2023-05-16T20:44:58.839Z,10.86
2023-05-16T20:47:25.395Z,10.80
2023-05-16T20:49:51.824Z,10.65
2023-05-16T20:52:19.863Z,10.65
2023-05-16T20:54:47.721Z,10.70
2023-05-16T20:57:14.129Z,10.66
2023-05-16T20:59:40.870Z,10.63
2023-05-16T21:02:09.983Z,10.54
2023-05-16T21:04:37.423Z,10.52
2023-05-16T21:07:05.352Z,10.56
2023-05-16T21:09:33.701Z,10.57
2023-05-16T21:12:00.117Z,10.54
2023-05-16T21:14:26.591Z,10.65
2023-05-16T21:16:52.997Z,10.34
2023-05-16T21:19:19.559Z,10.37
2023-05-16T21:21:46.269Z,10.50
2023-05-16T21:24:12.659Z,10.40
2023-05-16T21:26:39.084Z,10.47
2023-05-16T21:29:05.519Z,10.35
2023-05-16T21:31:31.960Z,10.27
2023-05-16T21:33:58.465Z,10.41
2023-05-16T21:36:24.961Z,10.28
2023-05-16T21:38:51.469Z,10.35
2023-05-16T21:41:18.221Z,10.42
2023-05-16T21:43:44.690Z,10.23
2023-05-16T21:46:11.112Z,10.24
2023-05-16T21:48:37.685Z,10.29
2023-05-16T21:51:04.258Z,10.12
2023-05-16T21:53:30.661Z,9.99
2023-05-16T21:55:57.109Z,10.15
2023-05-16T21:58:25.105Z,10.22
2023-05-16T22:00:51.542Z,10.10
2023-05-16T22:03:20.933Z,10.10
2023-05-16T22:05:47.707Z,10.04
2023-05-16T22:08:14.192Z,10.14
2023-05-16T22:10:40.629Z,10.02
2023-05-16T22:13:08.040Z,10.09
2023-05-16T22:15:34.750Z,10.00
2023-05-16T22:18:01.351Z,9.87
2023-05-16T22:20:27.933Z,9.94
2023-05-16T22:22:54.349Z,9.97
2023-05-16T22:25:20.826Z,10.04
2023-05-16T22:27:47.236Z,9.88
2023-05-16T22:30:13.692Z,9.98
2023-05-16T22:32:40.213Z,10.04
2023-05-16T22:35:07.030Z,9.99
2023-05-16T22:37:33.440Z,10.01
2023-05-16T22:39:59.860Z,9.82
2023-05-16T22:42:26.310Z,9.85
2023-05-16T22:44:52.729Z,9.74
2023-05-16T22:47:19.509Z,9.76
2023-05-16T22:49:45.910Z,9.61
2023-05-16T22:52:12.344Z,9.76
2023-05-16T22:54:38.796Z,9.67
2023-05-16T22:57:05.376Z,9.68
2023-05-16T22:59:31.952Z,9.76
2023-05-16T23:01:58.791Z,9.64
2023-05-16T23:04:25.347Z,9.53
2023-05-16T23:06:51.806Z,9.56
2023-05-16T23:09:18.229Z,9.48
2023-05-16T23:11:44.638Z,9.52
2023-05-16T23:14:11.128Z,9.51
2023-05-16T23:16:37.571Z,9.48
2023-05-16T23:19:05.010Z,9.43
2023-05-16T23:21:32.537Z,9.49
2023-05-16T23:23:58.976Z,9.41
2023-05-16T23:26:25.431Z,9.37
2023-05-16T23:28:52.117Z,9.40
2023-05-16T23:31:18.526Z,9.26
2023-05-16T23:33:45.026Z,9.00
2023-05-16T23:36:11.484Z,8.84
2023-05-16T23:38:38.429Z,8.98
2023-05-16T23:41:04.887Z,8.97
2023-05-16T23:43:31.304Z,8.99
2023-05-16T23:45:57.729Z,8.68
2023-05-16T23:48:24.310Z,8.71
2023-05-16T23:50:51.474Z,8.65
2023-05-16T23:53:17.906Z,8.67
2023-05-16T23:55:44.359Z,8.62
2023-05-16T23:58:10.852Z,8.45
